sensor_id;sensor_type;location;lat;lon;timestamp;P1;durP1;ratioP1;P2;durP2;ratioP2
63714;SDS011;49858;48.956;9.076;2024-01-27T00:01:25;9.65;;;4.43;;
63714;SDS011;49858;48.956;9.076;2024-01-27T00:03:54;11.10;;;4.70;;
63714;SDS011;49858;48.956;9.076;2024-01-27T00:06:22;10.18;;;3.92;;
63714;SDS011;49858;48.956;9.076;2024-01-27T00:08:50;8.95;;;4.65;;
63714;SDS011;49858;48.956;9.076;2024-01-27T00:11:18;8.90;;;3.90;;
63714;SDS011;49858;48.956;9.076;2024-01-27T00:13:48;7.72;;;4.40;;
63714;SDS011;49858;48.956;9.076;2024-01-27T00:16:16;7.82;;;4.78;;
63714;SDS011;49858;48.956;9.076;2024-01-27T00:18:45;9.40;;;4.97;;
63714;SDS011;49858;48.956;9.076;2024-01-27T00:21:15;5.50;;;3.58;;
63714;SDS011;49858;48.956;9.076;2024-01-27T00:23:43;3.38;;;2.10;;
63714;SDS011;49858;48.956;9.076;2024-01-27T00:26:11;5.25;;;2.75;;
63714;SDS011;49858;48.956;9.076;2024-01-27T00:28:38;2.65;;;2.20;;
63714;SDS011;49858;48.956;9.076;2024-01-27T00:31:06;2.47;;;2.28;;
63714;SDS011;49858;48.956;9.076;2024-01-27T00:33:34;1.70;;;1.60;;
63714;SDS011;49858;48.956;9.076;2024-01-27T00:36:03;3.33;;;2.38;;
63714;SDS011;49858;48.956;9.076;2024-01-27T00:38:33;4.80;;;2.28;;
63714;SDS011;49858;48.956;9.076;2024-01-27T00:41:01;1.30;;;1.20;;
63714;SDS011;49858;48.956;9.076;2024-01-27T00:43:29;5.40;;;4.07;;
63714;SDS011;49858;48.956;9.076;2024-01-27T00:45:57;1.58;;;1.48;;
63714;SDS011;49858;48.956;9.076;2024-01-27T00:48:25;3.17;;;2.47;;
63714;SDS011;49858;48.956;9.076;2024-01-27T00:50:53;2.13;;;1.70;;
63714;SDS011;49858;48.956;9.076;2024-01-27T00:53:21;2.65;;;2.33;;
63714;SDS011;49858;48.956;9.076;2024-01-27T00:55:50;5.05;;;3.28;;
63714;SDS011;49858;48.956;9.076;2024-01-27T00:58:18;3.20;;;1.98;;
63714;SDS011;49858;48.956;9.076;2024-01-27T01:00:47;7.28;;;4.53;;
63714;SDS011;49858;48.956;9.076;2024-01-27T01:03:14;10.05;;;4.93;;
63714;SDS011;49858;48.956;9.076;2024-01-27T01:05:43;6.63;;;3.67;;
63714;SDS011;49858;48.956;9.076;2024-01-27T01:08:11;10.55;;;5.05;;
63714;SDS011;49858;48.956;9.076;2024-01-27T01:10:39;13.02;;;5.07;;
63714;SDS011;49858;48.956;9.076;2024-01-27T01:13:08;8.30;;;4.68;;
63714;SDS011;49858;48.956;9.076;2024-01-27T01:15:36;9.82;;;4.75;;
63714;SDS011;49858;48.956;9.076;2024-01-27T01:18:04;7.53;;;4.18;;
63714;SDS011;49858;48.956;9.076;2024-01-27T01:20:32;9.95;;;4.95;;
63714;SDS011;49858;48.956;9.076;2024-01-27T01:23:00;11.32;;;5.97;;
63714;SDS011;49858;48.956;9.076;2024-01-27T01:25:28;9.95;;;5.75;;
63714;SDS011;49858;48.956;9.076;2024-01-27T01:27:55;9.18;;;4.65;;
63714;SDS011;49858;48.956;9.076;2024-01-27T01:30:25;8.02;;;5.57;;
63714;SDS011;49858;48.956;9.076;2024-01-27T01:32:53;11.93;;;5.28;;
63714;SDS011;49858;48.956;9.076;2024-01-27T01:35:21;5.43;;;4.35;;
63714;SDS011;49858;48.956;9.076;2024-01-27T01:37:49;8.98;;;5.05;;
63714;SDS011;49858;48.956;9.076;2024-01-27T01:40:17;11.07;;;4.85;;
63714;SDS011;49858;48.956;9.076;2024-01-27T01:42:49;8.48;;;4.55;;
63714;SDS011;49858;48.956;9.076;2024-01-27T01:45:18;6.47;;;4.28;;
63714;SDS011;49858;48.956;9.076;2024-01-27T01:47:48;7.93;;;4.88;;
63714;SDS011;49858;48.956;9.076;2024-01-27T01:50:17;9.05;;;5.22;;
63714;SDS011;49858;48.956;9.076;2024-01-27T01:52:45;11.15;;;6.28;;
63714;SDS011;49858;48.956;9.076;2024-01-27T01:55:15;12.25;;;5.93;;
63714;SDS011;49858;48.956;9.076;2024-01-27T01:57:43;9.40;;;5.43;;
63714;SDS011;49858;48.956;9.076;2024-01-27T02:00:11;9.05;;;5.32;;
63714;SDS011;49858;48.956;9.076;2024-01-27T02:02:42;10.85;;;5.45;;
63714;SDS011;49858;48.956;9.076;2024-01-27T02:05:12;7.53;;;4.32;;
63714;SDS011;49858;48.956;9.076;2024-01-27T02:07:41;10.57;;;5.28;;
63714;SDS011;49858;48.956;9.076;2024-01-27T02:10:12;9.68;;;4.80;;
63714;SDS011;49858;48.956;9.076;2024-01-27T02:12:41;14.13;;;5.30;;
63714;SDS011;49858;48.956;9.076;2024-01-27T02:15:10;8.88;;;5.05;;
63714;SDS011;49858;48.956;9.076;2024-01-27T02:17:39;11.27;;;5.10;;
63714;SDS011;49858;48.956;9.076;2024-01-27T02:20:08;12.25;;;5.38;;
63714;SDS011;49858;48.956;9.076;2024-01-27T02:22:38;12.43;;;4.90;;
63714;SDS011;49858;48.956;9.076;2024-01-27T02:25:07;8.50;;;4.72;;
63714;SDS011;49858;48.956;9.076;2024-01-27T02:27:36;10.02;;;5.40;;
63714;SDS011;49858;48.956;9.076;2024-01-27T02:30:04;7.45;;;4.13;;
63714;SDS011;49858;48.956;9.076;2024-01-27T02:32:33;6.45;;;4.57;;
63714;SDS011;49858;48.956;9.076;2024-01-27T02:35:01;7.13;;;3.92;;
63714;SDS011;49858;48.956;9.076;2024-01-27T02:37:29;8.10;;;4.22;;
63714;SDS011;49858;48.956;9.076;2024-01-27T02:39:57;5.03;;;3.13;;
63714;SDS011;49858;48.956;9.076;2024-01-27T02:42:27;9.55;;;4.28;;
63714;SDS011;49858;48.956;9.076;2024-01-27T02:44:55;8.95;;;4.68;;
63714;SDS011;49858;48.956;9.076;2024-01-27T02:47:23;10.02;;;4.53;;
63714;SDS011;49858;48.956;9.076;2024-01-27T02:49:50;16.25;;;4.05;;
63714;SDS011;49858;48.956;9.076;2024-01-27T02:52:18;7.32;;;4.07;;
63714;SDS011;49858;48.956;9.076;2024-01-27T02:54:47;5.93;;;4.00;;
63714;SDS011;49858;48.956;9.076;2024-01-27T02:57:14;6.55;;;4.32;;
63714;SDS011;49858;48.956;9.076;2024-01-27T02:59:46;10.20;;;4.47;;
63714;SDS011;49858;48.956;9.076;2024-01-27T03:02:14;7.32;;;4.05;;
63714;SDS011;49858;48.956;9.076;2024-01-27T03:04:42;10.20;;;3.85;;
63714;SDS011;49858;48.956;9.076;2024-01-27T03:07:10;11.57;;;4.35;;
63714;SDS011;49858;48.956;9.076;2024-01-27T03:09:38;8.60;;;4.15;;
63714;SDS011;49858;48.956;9.076;2024-01-27T03:12:06;9.90;;;4.50;;
63714;SDS011;49858;48.956;9.076;2024-01-27T03:14:34;10.73;;;4.68;;
63714;SDS011;49858;48.956;9.076;2024-01-27T03:17:03;10.13;;;3.88;;
63714;SDS011;49858;48.956;9.076;2024-01-27T03:19:31;4.70;;;2.28;;
63714;SDS011;49858;48.956;9.076;2024-01-27T03:21:59;8.57;;;2.70;;
63714;SDS011;49858;48.956;9.076;2024-01-27T03:24:27;5.03;;;2.85;;
63714;SDS011;49858;48.956;9.076;2024-01-27T03:26:55;13.15;;;6.32;;
63714;SDS011;49858;48.956;9.076;2024-01-27T03:29:23;10.60;;;5.25;;
63714;SDS011;49858;48.956;9.076;2024-01-27T03:31:51;6.40;;;3.78;;
63714;SDS011;49858;48.956;9.076;2024-01-27T03:34:20;7.68;;;4.10;;
63714;SDS011;49858;48.956;9.076;2024-01-27T03:36:52;8.30;;;4.15;;
63714;SDS011;49858;48.956;9.076;2024-01-27T03:39:19;6.50;;;3.90;;
63714;SDS011;49858;48.956;9.076;2024-01-27T03:41:47;11.07;;;5.72;;
63714;SDS011;49858;48.956;9.076;2024-01-27T03:44:15;11.23;;;5.65;;
63714;SDS011;49858;48.956;9.076;2024-01-27T03:46:43;10.57;;;4.53;;
63714;SDS011;49858;48.956;9.076;2024-01-27T03:49:11;8.23;;;5.00;;
63714;SDS011;49858;48.956;9.076;2024-01-27T03:51:40;7.93;;;4.57;;
63714;SDS011;49858;48.956;9.076;2024-01-27T03:54:08;6.57;;;3.42;;
63714;SDS011;49858;48.956;9.076;2024-01-27T03:56:36;8.48;;;5.20;;
63714;SDS011;49858;48.956;9.076;2024-01-27T03:59:04;12.32;;;6.72;;
63714;SDS011;49858;48.956;9.076;2024-01-27T04:01:35;7.40;;;4.90;;
63714;SDS011;49858;48.956;9.076;2024-01-27T04:04:03;8.35;;;5.35;;
63714;SDS011;49858;48.956;9.076;2024-01-27T04:06:35;7.30;;;5.00;;
63714;SDS011;49858;48.956;9.076;2024-01-27T04:09:05;1.80;;;1.52;;
63714;SDS011;49858;48.956;9.076;2024-01-27T04:11:35;12.55;;;5.90;;
63714;SDS011;49858;48.956;9.076;2024-01-27T04:14:05;10.40;;;5.28;;
63714;SDS011;49858;48.956;9.076;2024-01-27T04:16:34;11.13;;;5.15;;
63714;SDS011;49858;48.956;9.076;2024-01-27T04:19:02;7.35;;;5.07;;
63714;SDS011;49858;48.956;9.076;2024-01-27T04:21:30;13.75;;;6.00;;
63714;SDS011;49858;48.956;9.076;2024-01-27T04:23:58;14.55;;;5.15;;
63714;SDS011;49858;48.956;9.076;2024-01-27T04:26:27;9.27;;;5.30;;
63714;SDS011;49858;48.956;9.076;2024-01-27T04:28:55;9.70;;;4.82;;
63714;SDS011;49858;48.956;9.076;2024-01-27T04:31:23;15.02;;;6.00;;
63714;SDS011;49858;48.956;9.076;2024-01-27T04:33:51;9.15;;;4.82;;
63714;SDS011;49858;48.956;9.076;2024-01-27T04:36:24;9.93;;;5.72;;
63714;SDS011;49858;48.956;9.076;2024-01-27T04:38:53;15.15;;;5.72;;
63714;SDS011;49858;48.956;9.076;2024-01-27T04:41:21;12.77;;;5.68;;
63714;SDS011;49858;48.956;9.076;2024-01-27T04:43:51;11.20;;;5.32;;
63714;SDS011;49858;48.956;9.076;2024-01-27T04:46:19;9.77;;;5.85;;
63714;SDS011;49858;48.956;9.076;2024-01-27T04:48:47;11.88;;;6.03;;
63714;SDS011;49858;48.956;9.076;2024-01-27T04:51:15;10.10;;;6.00;;
63714;SDS011;49858;48.956;9.076;2024-01-27T04:53:43;11.75;;;5.82;;
63714;SDS011;49858;48.956;9.076;2024-01-27T04:56:11;12.15;;;5.68;;
63714;SDS011;49858;48.956;9.076;2024-01-27T04:58:39;10.85;;;6.78;;
63714;SDS011;49858;48.956;9.076;2024-01-27T05:01:08;7.63;;;4.20;;
63714;SDS011;49858;48.956;9.076;2024-01-27T05:03:36;9.18;;;5.35;;
63714;SDS011;49858;48.956;9.076;2024-01-27T05:06:07;8.02;;;4.95;;
63714;SDS011;49858;48.956;9.076;2024-01-27T05:08:35;11.43;;;5.20;;
63714;SDS011;49858;48.956;9.076;2024-01-27T05:11:04;9.25;;;5.50;;
63714;SDS011;49858;48.956;9.076;2024-01-27T05:13:31;11.52;;;7.53;;
63714;SDS011;49858;48.956;9.076;2024-01-27T05:15:59;14.38;;;7.30;;
63714;SDS011;49858;48.956;9.076;2024-01-27T05:18:29;14.88;;;6.65;;
63714;SDS011;49858;48.956;9.076;2024-01-27T05:20:57;9.68;;;5.85;;
63714;SDS011;49858;48.956;9.076;2024-01-27T05:23:25;10.25;;;5.38;;
63714;SDS011;49858;48.956;9.076;2024-01-27T05:25:53;8.05;;;4.63;;
63714;SDS011;49858;48.956;9.076;2024-01-27T05:28:21;9.32;;;4.57;;
63714;SDS011;49858;48.956;9.076;2024-01-27T05:30:49;9.98;;;5.68;;
63714;SDS011;49858;48.956;9.076;2024-01-27T05:33:17;16.17;;;7.22;;
63714;SDS011;49858;48.956;9.076;2024-01-27T05:35:46;8.48;;;5.53;;
63714;SDS011;49858;48.956;9.076;2024-01-27T05:38:14;9.93;;;5.32;;
63714;SDS011;49858;48.956;9.076;2024-01-27T05:40:42;6.53;;;4.78;;
63714;SDS011;49858;48.956;9.076;2024-01-27T05:43:11;8.25;;;4.32;;
63714;SDS011;49858;48.956;9.076;2024-01-27T05:45:39;7.47;;;4.57;;
63714;SDS011;49858;48.956;9.076;2024-01-27T05:48:07;7.75;;;4.50;;
63714;SDS011;49858;48.956;9.076;2024-01-27T05:50:35;8.88;;;5.00;;
63714;SDS011;49858;48.956;9.076;2024-01-27T05:53:04;6.57;;;4.10;;
63714;SDS011;49858;48.956;9.076;2024-01-27T05:55:32;12.50;;;4.50;;
63714;SDS011;49858;48.956;9.076;2024-01-27T05:58:00;9.05;;;4.43;;
63714;SDS011;49858;48.956;9.076;2024-01-27T06:00:28;10.02;;;4.28;;
63714;SDS011;49858;48.956;9.076;2024-01-27T06:02:56;6.80;;;4.13;;
63714;SDS011;49858;48.956;9.076;2024-01-27T06:05:24;5.93;;;3.85;;
63714;SDS011;49858;48.956;9.076;2024-01-27T06:07:52;7.43;;;4.55;;
63714;SDS011;49858;48.956;9.076;2024-01-27T06:10:21;6.05;;;3.58;;
63714;SDS011;49858;48.956;9.076;2024-01-27T06:12:50;9.95;;;3.67;;
63714;SDS011;49858;48.956;9.076;2024-01-27T06:15:18;7.90;;;4.40;;
63714;SDS011;49858;48.956;9.076;2024-01-27T06:17:46;6.65;;;3.47;;
63714;SDS011;49858;48.956;9.076;2024-01-27T06:20:15;12.82;;;4.32;;
63714;SDS011;49858;48.956;9.076;2024-01-27T06:22:44;9.80;;;4.80;;
63714;SDS011;49858;48.956;9.076;2024-01-27T06:25:12;11.65;;;4.15;;
63714;SDS011;49858;48.956;9.076;2024-01-27T06:27:41;7.97;;;4.78;;
63714;SDS011;49858;48.956;9.076;2024-01-27T06:30:09;8.45;;;5.20;;
63714;SDS011;49858;48.956;9.076;2024-01-27T06:32:38;7.72;;;5.18;;
63714;SDS011;49858;48.956;9.076;2024-01-27T06:35:06;9.05;;;4.85;;
63714;SDS011;49858;48.956;9.076;2024-01-27T06:37:34;6.75;;;4.28;;
63714;SDS011;49858;48.956;9.076;2024-01-27T06:40:02;8.18;;;4.95;;
63714;SDS011;49858;48.956;9.076;2024-01-27T06:42:31;10.88;;;3.70;;
63714;SDS011;49858;48.956;9.076;2024-01-27T06:45:01;13.55;;;4.57;;
63714;SDS011;49858;48.956;9.076;2024-01-27T06:47:28;9.15;;;4.38;;
63714;SDS011;49858;48.956;9.076;2024-01-27T06:49:57;9.65;;;4.63;;
63714;SDS011;49858;48.956;9.076;2024-01-27T06:52:24;7.50;;;4.47;;
63714;SDS011;49858;48.956;9.076;2024-01-27T06:54:53;13.45;;;4.88;;
63714;SDS011;49858;48.956;9.076;2024-01-27T06:57:21;8.73;;;5.85;;
63714;SDS011;49858;48.956;9.076;2024-01-27T06:59:50;10.35;;;5.78;;
63714;SDS011;49858;48.956;9.076;2024-01-27T07:02:23;9.32;;;4.53;;
63714;SDS011;49858;48.956;9.076;2024-01-27T07:04:51;9.98;;;6.13;;
63714;SDS011;49858;48.956;9.076;2024-01-27T07:07:19;10.68;;;5.57;;
63714;SDS011;49858;48.956;9.076;2024-01-27T07:09:50;7.45;;;5.28;;
63714;SDS011;49858;48.956;9.076;2024-01-27T07:12:18;12.70;;;6.45;;
63714;SDS011;49858;48.956;9.076;2024-01-27T07:14:46;13.75;;;6.30;;
63714;SDS011;49858;48.956;9.076;2024-01-27T07:17:14;9.18;;;5.47;;
63714;SDS011;49858;48.956;9.076;2024-01-27T07:19:44;11.60;;;6.10;;
63714;SDS011;49858;48.956;9.076;2024-01-27T07:22:12;12.60;;;5.63;;
63714;SDS011;49858;48.956;9.076;2024-01-27T07:24:40;13.23;;;7.50;;
63714;SDS011;49858;48.956;9.076;2024-01-27T07:27:11;11.02;;;5.97;;
63714;SDS011;49858;48.956;9.076;2024-01-27T07:29:40;11.57;;;5.70;;
63714;SDS011;49858;48.956;9.076;2024-01-27T07:32:07;12.20;;;6.55;;
63714;SDS011;49858;48.956;9.076;2024-01-27T07:34:40;11.63;;;6.60;;
63714;SDS011;49858;48.956;9.076;2024-01-27T07:37:10;15.07;;;6.80;;
63714;SDS011;49858;48.956;9.076;2024-01-27T07:39:38;13.75;;;6.95;;
63714;SDS011;49858;48.956;9.076;2024-01-27T07:42:06;9.52;;;5.88;;
63714;SDS011;49858;48.956;9.076;2024-01-27T07:44:34;11.18;;;6.85;;
63714;SDS011;49858;48.956;9.076;2024-01-27T07:47:02;17.13;;;6.72;;
63714;SDS011;49858;48.956;9.076;2024-01-27T07:49:30;18.65;;;8.65;;
63714;SDS011;49858;48.956;9.076;2024-01-27T07:51:58;15.93;;;7.30;;
63714;SDS011;49858;48.956;9.076;2024-01-27T07:54:27;11.40;;;7.80;;
63714;SDS011;49858;48.956;9.076;2024-01-27T07:56:55;15.63;;;7.75;;
63714;SDS011;49858;48.956;9.076;2024-01-27T07:59:23;12.07;;;6.82;;
63714;SDS011;49858;48.956;9.076;2024-01-27T08:01:52;12.30;;;7.38;;
63714;SDS011;49858;48.956;9.076;2024-01-27T08:04:20;16.80;;;8.20;;
63714;SDS011;49858;48.956;9.076;2024-01-27T08:06:48;20.40;;;9.30;;
63714;SDS011;49858;48.956;9.076;2024-01-27T08:09:17;19.92;;;9.02;;
63714;SDS011;49858;48.956;9.076;2024-01-27T08:11:47;22.77;;;10.05;;
63714;SDS011;49858;48.956;9.076;2024-01-27T08:14:18;22.23;;;8.02;;
63714;SDS011;49858;48.956;9.076;2024-01-27T08:16:46;13.88;;;5.65;;
63714;SDS011;49858;48.956;9.076;2024-01-27T08:19:17;17.88;;;6.85;;
63714;SDS011;49858;48.956;9.076;2024-01-27T08:21:47;11.55;;;5.43;;
63714;SDS011;49858;48.956;9.076;2024-01-27T08:24:15;13.43;;;6.93;;
63714;SDS011;49858;48.956;9.076;2024-01-27T08:26:43;13.43;;;8.20;;
63714;SDS011;49858;48.956;9.076;2024-01-27T08:29:14;14.48;;;8.48;;
63714;SDS011;49858;48.956;9.076;2024-01-27T08:31:42;10.52;;;6.57;;
63714;SDS011;49858;48.956;9.076;2024-01-27T08:34:10;16.80;;;6.88;;
63714;SDS011;49858;48.956;9.076;2024-01-27T08:36:39;10.43;;;6.13;;
63714;SDS011;49858;48.956;9.076;2024-01-27T08:39:07;12.00;;;6.35;;
63714;SDS011;49858;48.956;9.076;2024-01-27T08:41:39;10.93;;;5.72;;
63714;SDS011;49858;48.956;9.076;2024-01-27T08:44:07;14.85;;;6.57;;
63714;SDS011;49858;48.956;9.076;2024-01-27T08:46:36;13.60;;;6.00;;
63714;SDS011;49858;48.956;9.076;2024-01-27T08:49:04;14.13;;;7.35;;
63714;SDS011;49858;48.956;9.076;2024-01-27T08:51:32;8.88;;;6.65;;
63714;SDS011;49858;48.956;9.076;2024-01-27T08:54:01;8.38;;;5.43;;
63714;SDS011;49858;48.956;9.076;2024-01-27T08:56:29;11.63;;;5.90;;
63714;SDS011;49858;48.956;9.076;2024-01-27T08:58:57;11.00;;;5.63;;
63714;SDS011;49858;48.956;9.076;2024-01-27T09:01:25;10.02;;;6.10;;
63714;SDS011;49858;48.956;9.076;2024-01-27T09:03:55;10.02;;;6.55;;
63714;SDS011;49858;48.956;9.076;2024-01-27T09:06:23;11.00;;;6.95;;
63714;SDS011;49858;48.956;9.076;2024-01-27T09:08:55;12.02;;;7.43;;
63714;SDS011;49858;48.956;9.076;2024-01-27T09:11:23;16.38;;;7.28;;
63714;SDS011;49858;48.956;9.076;2024-01-27T09:13:53;11.50;;;6.65;;
63714;SDS011;49858;48.956;9.076;2024-01-27T09:16:21;15.20;;;6.88;;
63714;SDS011;49858;48.956;9.076;2024-01-27T09:18:50;10.38;;;5.68;;
63714;SDS011;49858;48.956;9.076;2024-01-27T09:21:21;8.80;;;5.53;;
63714;SDS011;49858;48.956;9.076;2024-01-27T09:23:54;9.45;;;5.93;;
63714;SDS011;49858;48.956;9.076;2024-01-27T09:26:22;12.15;;;6.60;;
63714;SDS011;49858;48.956;9.076;2024-01-27T09:28:50;9.57;;;5.93;;
63714;SDS011;49858;48.956;9.076;2024-01-27T09:31:21;14.65;;;5.75;;
63714;SDS011;49858;48.956;9.076;2024-01-27T09:33:50;9.88;;;5.55;;
63714;SDS011;49858;48.956;9.076;2024-01-27T09:36:21;9.30;;;5.90;;
63714;SDS011;49858;48.956;9.076;2024-01-27T09:38:50;9.95;;;5.65;;
63714;SDS011;49858;48.956;9.076;2024-01-27T09:41:19;11.32;;;5.70;;
63714;SDS011;49858;48.956;9.076;2024-01-27T09:43:47;10.57;;;6.28;;
63714;SDS011;49858;48.956;9.076;2024-01-27T09:46:18;8.85;;;5.28;;
63714;SDS011;49858;48.956;9.076;2024-01-27T09:48:46;9.73;;;5.65;;
63714;SDS011;49858;48.956;9.076;2024-01-27T09:51:15;7.82;;;5.55;;
63714;SDS011;49858;48.956;9.076;2024-01-27T09:53:44;10.30;;;6.43;;
63714;SDS011;49858;48.956;9.076;2024-01-27T09:56:12;12.23;;;6.25;;
63714;SDS011;49858;48.956;9.076;2024-01-27T09:58:45;10.25;;;5.03;;
63714;SDS011;49858;48.956;9.076;2024-01-27T10:01:13;12.63;;;6.53;;
63714;SDS011;49858;48.956;9.076;2024-01-27T10:03:43;11.27;;;5.10;;
63714;SDS011;49858;48.956;9.076;2024-01-27T10:06:12;8.93;;;4.72;;
63714;SDS011;49858;48.956;9.076;2024-01-27T10:08:41;8.75;;;5.60;;
63714;SDS011;49858;48.956;9.076;2024-01-27T10:11:19;12.30;;;6.18;;
63714;SDS011;49858;48.956;9.076;2024-01-27T10:13:53;11.25;;;5.38;;
63714;SDS011;49858;48.956;9.076;2024-01-27T10:16:25;10.95;;;6.18;;
63714;SDS011;49858;48.956;9.076;2024-01-27T10:18:59;11.68;;;5.75;;
63714;SDS011;49858;48.956;9.076;2024-01-27T10:21:28;9.48;;;6.03;;
63714;SDS011;49858;48.956;9.076;2024-01-27T10:24:00;10.02;;;6.80;;
63714;SDS011;49858;48.956;9.076;2024-01-27T10:26:32;7.57;;;5.53;;
63714;SDS011;49858;48.956;9.076;2024-01-27T10:29:01;11.20;;;6.50;;
63714;SDS011;49858;48.956;9.076;2024-01-27T10:31:30;10.93;;;5.95;;
63714;SDS011;49858;48.956;9.076;2024-01-27T10:33:59;14.27;;;5.93;;
63714;SDS011;49858;48.956;9.076;2024-01-27T10:36:37;9.88;;;5.28;;
63714;SDS011;49858;48.956;9.076;2024-01-27T10:39:15;10.38;;;6.75;;
63714;SDS011;49858;48.956;9.076;2024-01-27T10:41:44;11.90;;;6.85;;
63714;SDS011;49858;48.956;9.076;2024-01-27T10:44:14;10.70;;;6.93;;
63714;SDS011;49858;48.956;9.076;2024-01-27T10:46:47;9.65;;;7.00;;
63714;SDS011;49858;48.956;9.076;2024-01-27T10:49:16;11.30;;;6.93;;
63714;SDS011;49858;48.956;9.076;2024-01-27T10:51:46;11.02;;;7.28;;
63714;SDS011;49858;48.956;9.076;2024-01-27T10:54:23;13.45;;;6.70;;
63714;SDS011;49858;48.956;9.076;2024-01-27T10:56:53;11.13;;;6.78;;
63714;SDS011;49858;48.956;9.076;2024-01-27T10:59:22;9.50;;;6.53;;
63714;SDS011;49858;48.956;9.076;2024-01-27T11:01:53;11.95;;;6.30;;
63714;SDS011;49858;48.956;9.076;2024-01-27T11:04:22;12.90;;;6.63;;
63714;SDS011;49858;48.956;9.076;2024-01-27T11:06:51;12.32;;;6.53;;
63714;SDS011;49858;48.956;9.076;2024-01-27T11:09:19;13.85;;;7.05;;
63714;SDS011;49858;48.956;9.076;2024-01-27T11:11:53;10.05;;;6.82;;
63714;SDS011;49858;48.956;9.076;2024-01-27T11:14:21;12.38;;;6.30;;
63714;SDS011;49858;48.956;9.076;2024-01-27T11:16:54;11.13;;;6.25;;
63714;SDS011;49858;48.956;9.076;2024-01-27T11:19:23;10.35;;;5.43;;
63714;SDS011;49858;48.956;9.076;2024-01-27T11:21:59;12.15;;;5.32;;
63714;SDS011;49858;48.956;9.076;2024-01-27T11:24:28;12.40;;;5.53;;
63714;SDS011;49858;48.956;9.076;2024-01-27T11:27:04;10.13;;;5.53;;
63714;SDS011;49858;48.956;9.076;2024-01-27T11:29:33;9.75;;;5.50;;
63714;SDS011;49858;48.956;9.076;2024-01-27T11:32:03;8.23;;;5.45;;
63714;SDS011;49858;48.956;9.076;2024-01-27T11:34:44;10.88;;;5.72;;
63714;SDS011;49858;48.956;9.076;2024-01-27T11:37:14;8.40;;;5.50;;
63714;SDS011;49858;48.956;9.076;2024-01-27T11:39:43;11.43;;;4.95;;
63714;SDS011;49858;48.956;9.076;2024-01-27T11:42:12;7.78;;;5.13;;
63714;SDS011;49858;48.956;9.076;2024-01-27T11:44:41;8.35;;;4.88;;
63714;SDS011;49858;48.956;9.076;2024-01-27T11:47:13;8.57;;;5.00;;
63714;SDS011;49858;48.956;9.076;2024-01-27T11:49:42;12.52;;;4.88;;
63714;SDS011;49858;48.956;9.076;2024-01-27T11:52:11;12.68;;;4.80;;
63714;SDS011;49858;48.956;9.076;2024-01-27T11:54:39;10.95;;;4.50;;
63714;SDS011;49858;48.956;9.076;2024-01-27T11:57:07;9.05;;;4.05;;
63714;SDS011;49858;48.956;9.076;2024-01-27T11:59:38;8.27;;;3.72;;
63714;SDS011;49858;48.956;9.076;2024-01-27T12:02:05;10.73;;;3.63;;
63714;SDS011;49858;48.956;9.076;2024-01-27T12:04:33;10.77;;;4.43;;
63714;SDS011;49858;48.956;9.076;2024-01-27T12:07:02;6.90;;;3.78;;
63714;SDS011;49858;48.956;9.076;2024-01-27T12:09:31;6.35;;;3.65;;
63714;SDS011;49858;48.956;9.076;2024-01-27T12:11:59;9.10;;;3.85;;
63714;SDS011;49858;48.956;9.076;2024-01-27T12:14:38;8.55;;;4.65;;
63714;SDS011;49858;48.956;9.076;2024-01-27T12:17:08;7.05;;;3.85;;
63714;SDS011;49858;48.956;9.076;2024-01-27T12:19:37;7.88;;;3.70;;
63714;SDS011;49858;48.956;9.076;2024-01-27T12:22:05;10.18;;;4.82;;
63714;SDS011;49858;48.956;9.076;2024-01-27T12:24:49;13.52;;;3.95;;
63714;SDS011;49858;48.956;9.076;2024-01-27T12:27:17;8.60;;;3.70;;
63714;SDS011;49858;48.956;9.076;2024-01-27T12:29:47;8.43;;;3.72;;
63714;SDS011;49858;48.956;9.076;2024-01-27T12:32:16;9.60;;;3.50;;
63714;SDS011;49858;48.956;9.076;2024-01-27T12:34:45;15.25;;;4.18;;
63714;SDS011;49858;48.956;9.076;2024-01-27T12:37:14;10.32;;;3.60;;
63714;SDS011;49858;48.956;9.076;2024-01-27T12:39:43;10.98;;;3.50;;
63714;SDS011;49858;48.956;9.076;2024-01-27T12:42:11;9.45;;;3.15;;
63714;SDS011;49858;48.956;9.076;2024-01-27T12:44:40;9.63;;;3.75;;
63714;SDS011;49858;48.956;9.076;2024-01-27T12:47:09;10.95;;;4.75;;
63714;SDS011;49858;48.956;9.076;2024-01-27T12:49:37;8.90;;;4.93;;
63714;SDS011;49858;48.956;9.076;2024-01-27T12:52:05;9.05;;;4.20;;
63714;SDS011;49858;48.956;9.076;2024-01-27T12:54:33;9.05;;;4.28;;
63714;SDS011;49858;48.956;9.076;2024-01-27T12:57:01;10.15;;;4.07;;
63714;SDS011;49858;48.956;9.076;2024-01-27T12:59:29;12.55;;;4.13;;
63714;SDS011;49858;48.956;9.076;2024-01-27T13:01:58;9.00;;;4.40;;
63714;SDS011;49858;48.956;9.076;2024-01-27T13:04:26;10.05;;;4.25;;
63714;SDS011;49858;48.956;9.076;2024-01-27T13:06:54;9.10;;;3.88;;
63714;SDS011;49858;48.956;9.076;2024-01-27T13:09:22;6.13;;;3.90;;
63714;SDS011;49858;48.956;9.076;2024-01-27T13:11:52;9.13;;;4.38;;
63714;SDS011;49858;48.956;9.076;2024-01-27T13:14:20;8.68;;;3.85;;
63714;SDS011;49858;48.956;9.076;2024-01-27T13:16:49;8.98;;;4.05;;
63714;SDS011;49858;48.956;9.076;2024-01-27T13:19:20;11.35;;;4.57;;
63714;SDS011;49858;48.956;9.076;2024-01-27T13:21:49;14.50;;;4.38;;
63714;SDS011;49858;48.956;9.076;2024-01-27T13:24:17;9.70;;;3.20;;
63714;SDS011;49858;48.956;9.076;2024-01-27T13:26:46;6.25;;;3.17;;
63714;SDS011;49858;48.956;9.076;2024-01-27T13:29:14;8.25;;;3.47;;
63714;SDS011;49858;48.956;9.076;2024-01-27T13:31:42;7.88;;;3.67;;
63714;SDS011;49858;48.956;9.076;2024-01-27T13:34:10;6.80;;;3.65;;
63714;SDS011;49858;48.956;9.076;2024-01-27T13:36:38;8.70;;;3.53;;
63714;SDS011;49858;48.956;9.076;2024-01-27T13:39:08;7.00;;;3.38;;
63714;SDS011;49858;48.956;9.076;2024-01-27T13:41:36;9.88;;;3.42;;
63714;SDS011;49858;48.956;9.076;2024-01-27T13:44:04;7.50;;;3.83;;
63714;SDS011;49858;48.956;9.076;2024-01-27T13:46:32;7.60;;;3.22;;
63714;SDS011;49858;48.956;9.076;2024-01-27T13:49:00;6.00;;;3.35;;
63714;SDS011;49858;48.956;9.076;2024-01-27T13:51:28;9.85;;;3.53;;
63714;SDS011;49858;48.956;9.076;2024-01-27T13:53:56;6.53;;;2.92;;
63714;SDS011;49858;48.956;9.076;2024-01-27T13:56:26;8.85;;;3.13;;
63714;SDS011;49858;48.956;9.076;2024-01-27T13:58:55;8.20;;;3.00;;
63714;SDS011;49858;48.956;9.076;2024-01-27T14:01:23;5.80;;;3.28;;
63714;SDS011;49858;48.956;9.076;2024-01-27T14:03:51;9.23;;;3.30;;
63714;SDS011;49858;48.956;9.076;2024-01-27T14:06:19;7.22;;;3.45;;
63714;SDS011;49858;48.956;9.076;2024-01-27T14:08:47;8.15;;;3.60;;
63714;SDS011;49858;48.956;9.076;2024-01-27T14:11:15;11.00;;;3.55;;
63714;SDS011;49858;48.956;9.076;2024-01-27T14:13:46;12.70;;;3.55;;
63714;SDS011;49858;48.956;9.076;2024-01-27T14:16:14;7.70;;;3.65;;
63714;SDS011;49858;48.956;9.076;2024-01-27T14:18:45;7.97;;;3.65;;
63714;SDS011;49858;48.956;9.076;2024-01-27T14:21:13;9.13;;;3.80;;
63714;SDS011;49858;48.956;9.076;2024-01-27T14:23:42;9.35;;;3.30;;
63714;SDS011;49858;48.956;9.076;2024-01-27T14:26:09;8.48;;;3.92;;
63714;SDS011;49858;48.956;9.076;2024-01-27T14:28:42;9.93;;;4.30;;
63714;SDS011;49858;48.956;9.076;2024-01-27T14:31:12;8.93;;;3.15;;
63714;SDS011;49858;48.956;9.076;2024-01-27T14:33:41;10.85;;;3.65;;
63714;SDS011;49858;48.956;9.076;2024-01-27T14:36:10;9.48;;;3.25;;
63714;SDS011;49858;48.956;9.076;2024-01-27T14:38:38;7.75;;;3.67;;
63714;SDS011;49858;48.956;9.076;2024-01-27T14:41:07;11.00;;;4.53;;
63714;SDS011;49858;48.956;9.076;2024-01-27T14:43:35;10.38;;;3.72;;
63714;SDS011;49858;48.956;9.076;2024-01-27T14:46:04;8.30;;;3.83;;
63714;SDS011;49858;48.956;9.076;2024-01-27T14:48:34;17.55;;;7.40;;
63714;SDS011;49858;48.956;9.076;2024-01-27T14:51:03;7.85;;;3.47;;